Harper, Kansas
Current Conditions -  °F | °C
As of 5:53 PM on Friday 28 Nov 2014 (Local Time) from KICT Reporting Station
Broken Clouds Broken Clouds  
Wind Chill: 55°   Ceiling: 30000
Heat Index: 55°   Visibility: 10mi
Dew Point: 36°   Wind: 13mph
Humidity: 49%   Direction: 180°S
Pressure: 29.81"   Gusts: NA
Location:  37.29°N, 98.03°W
Report Text: KICT 282353Z 18011KT 10SM BKN300 13/02 A2981 RMK AO2 SLP097 T01280022 10167 20128 55004
Loading
Personal Weather Stations






























Interactive Weather Map New forecast layout! Learn more

10-Day Weather Forecast

Advertisements
Track Severe Weather on mobile